sensor_id;sensor_type;location;lat;lon;timestamp;P1;durP1;ratioP1;P2;durP2;ratioP2
5937;SDS011;2994;51.220;4.412;2022-08-07T00:01:32;3.80;;;3.30;;
5937;SDS011;2994;51.220;4.412;2022-08-07T00:03:58;2.77;;;2.57;;
5937;SDS011;2994;51.220;4.412;2022-08-07T00:06:24;3.40;;;2.63;;
5937;SDS011;2994;51.220;4.412;2022-08-07T00:08:50;3.60;;;3.30;;
5937;SDS011;2994;51.220;4.412;2022-08-07T00:11:16;3.30;;;3.00;;
5937;SDS011;2994;51.220;4.412;2022-08-07T00:13:41;5.17;;;3.80;;
5937;SDS011;2994;51.220;4.412;2022-08-07T00:16:09;3.77;;;3.10;;
5937;SDS011;2994;51.220;4.412;2022-08-07T00:18:34;3.90;;;3.30;;
5937;SDS011;2994;51.220;4.412;2022-08-07T00:21:01;3.87;;;3.47;;
5937;SDS011;2994;51.220;4.412;2022-08-07T00:23:29;3.73;;;3.43;;
5937;SDS011;2994;51.220;4.412;2022-08-07T00:25:55;4.70;;;3.60;;
5937;SDS011;2994;51.220;4.412;2022-08-07T00:28:21;5.47;;;4.23;;
5937;SDS011;2994;51.220;4.412;2022-08-07T00:30:47;3.13;;;2.87;;
5937;SDS011;2994;51.220;4.412;2022-08-07T00:33:12;4.60;;;3.50;;
5937;SDS011;2994;51.220;4.412;2022-08-07T00:35:38;3.60;;;3.30;;
5937;SDS011;2994;51.220;4.412;2022-08-07T00:38:03;3.57;;;3.27;;
5937;SDS011;2994;51.220;4.412;2022-08-07T00:40:29;3.97;;;3.27;;
5937;SDS011;2994;51.220;4.412;2022-08-07T00:42:55;3.07;;;2.87;;
5937;SDS011;2994;51.220;4.412;2022-08-07T00:45:20;4.00;;;3.60;;
5937;SDS011;2994;51.220;4.412;2022-08-07T00:47:47;4.03;;;3.03;;
5937;SDS011;2994;51.220;4.412;2022-08-07T00:50:13;4.20;;;3.80;;
5937;SDS011;2994;51.220;4.412;2022-08-07T00:52:39;4.13;;;2.83;;
5937;SDS011;2994;51.220;4.412;2022-08-07T00:55:05;4.27;;;3.17;;
5937;SDS011;2994;51.220;4.412;2022-08-07T00:57:31;4.07;;;3.03;;
5937;SDS011;2994;51.220;4.412;2022-08-07T00:59:57;3.60;;;3.20;;
5937;SDS011;2994;51.220;4.412;2022-08-07T01:02:23;3.40;;;3.10;;
5937;SDS011;2994;51.220;4.412;2022-08-07T01:04:49;4.47;;;3.50;;
5937;SDS011;2994;51.220;4.412;2022-08-07T01:07:14;4.97;;;4.20;;
5937;SDS011;2994;51.220;4.412;2022-08-07T01:09:40;4.30;;;3.57;;
5937;SDS011;2994;51.220;4.412;2022-08-07T01:12:06;3.00;;;2.67;;
5937;SDS011;2994;51.220;4.412;2022-08-07T01:14:31;4.20;;;3.80;;
5937;SDS011;2994;51.220;4.412;2022-08-07T01:16:57;3.60;;;3.37;;
5937;SDS011;2994;51.220;4.412;2022-08-07T01:19:24;4.03;;;3.47;;
5937;SDS011;2994;51.220;4.412;2022-08-07T01:21:51;3.10;;;2.90;;
5937;SDS011;2994;51.220;4.412;2022-08-07T01:24:18;3.73;;;3.43;;
5937;SDS011;2994;51.220;4.412;2022-08-07T01:26:44;5.60;;;4.33;;
5937;SDS011;2994;51.220;4.412;2022-08-07T01:29:11;3.90;;;3.50;;
5937;SDS011;2994;51.220;4.412;2022-08-07T01:31:37;4.37;;;3.60;;
5937;SDS011;2994;51.220;4.412;2022-08-07T01:34:02;4.30;;;3.27;;
5937;SDS011;2994;51.220;4.412;2022-08-07T01:36:30;5.77;;;3.70;;
5937;SDS011;2994;51.220;4.412;2022-08-07T01:38:56;4.20;;;3.40;;
5937;SDS011;2994;51.220;4.412;2022-08-07T01:41:23;4.20;;;3.17;;
5937;SDS011;2994;51.220;4.412;2022-08-07T01:43:49;4.90;;;3.43;;
5937;SDS011;2994;51.220;4.412;2022-08-07T01:46:15;7.50;;;3.80;;
5937;SDS011;2994;51.220;4.412;2022-08-07T01:48:42;3.83;;;3.43;;
5937;SDS011;2994;51.220;4.412;2022-08-07T01:51:10;4.10;;;3.70;;
5937;SDS011;2994;51.220;4.412;2022-08-07T01:53:38;3.90;;;3.60;;
5937;SDS011;2994;51.220;4.412;2022-08-07T01:56:09;4.20;;;3.80;;
5937;SDS011;2994;51.220;4.412;2022-08-07T01:58:41;3.60;;;3.30;;
5937;SDS011;2994;51.220;4.412;2022-08-07T02:01:30;4.07;;;3.67;;
5937;SDS011;2994;51.220;4.412;2022-08-07T02:04:00;5.37;;;3.90;;
5937;SDS011;2994;51.220;4.412;2022-08-07T02:06:31;4.90;;;4.50;;
5937;SDS011;2994;51.220;4.412;2022-08-07T02:09:00;5.03;;;3.50;;
5937;SDS011;2994;51.220;4.412;2022-08-07T02:11:28;5.60;;;4.77;;
5937;SDS011;2994;51.220;4.412;2022-08-07T02:13:57;4.33;;;3.40;;
5937;SDS011;2994;51.220;4.412;2022-08-07T02:16:24;4.10;;;3.80;;
5937;SDS011;2994;51.220;4.412;2022-08-07T02:18:50;4.37;;;3.97;;
5937;SDS011;2994;51.220;4.412;2022-08-07T02:21:16;4.80;;;4.20;;
5937;SDS011;2994;51.220;4.412;2022-08-07T02:23:44;4.70;;;4.30;;
5937;SDS011;2994;51.220;4.412;2022-08-07T02:26:10;4.00;;;3.70;;
5937;SDS011;2994;51.220;4.412;2022-08-07T02:28:37;6.00;;;5.50;;
5937;SDS011;2994;51.220;4.412;2022-08-07T02:31:05;4.70;;;4.17;;
5937;SDS011;2994;51.220;4.412;2022-08-07T02:33:31;4.30;;;3.67;;
5937;SDS011;2994;51.220;4.412;2022-08-07T02:35:57;5.50;;;4.63;;
5937;SDS011;2994;51.220;4.412;2022-08-07T02:38:28;5.07;;;4.57;;
5937;SDS011;2994;51.220;4.412;2022-08-07T02:40:57;4.03;;;3.70;;
5937;SDS011;2994;51.220;4.412;2022-08-07T02:43:25;4.97;;;4.10;;
5937;SDS011;2994;51.220;4.412;2022-08-07T02:45:51;3.90;;;3.03;;
5937;SDS011;2994;51.220;4.412;2022-08-07T02:48:18;3.50;;;3.20;;
5937;SDS011;2994;51.220;4.412;2022-08-07T02:50:44;5.13;;;3.63;;
5937;SDS011;2994;51.220;4.412;2022-08-07T02:53:17;3.90;;;3.23;;
5937;SDS011;2994;51.220;4.412;2022-08-07T02:55:48;3.90;;;3.60;;
5937;SDS011;2994;51.220;4.412;2022-08-07T02:58:17;3.73;;;3.43;;
5937;SDS011;2994;51.220;4.412;2022-08-07T03:00:45;4.00;;;3.60;;
5937;SDS011;2994;51.220;4.412;2022-08-07T03:03:13;4.03;;;3.70;;
5937;SDS011;2994;51.220;4.412;2022-08-07T03:05:41;4.30;;;3.90;;
5937;SDS011;2994;51.220;4.412;2022-08-07T03:08:07;4.60;;;3.83;;
5937;SDS011;2994;51.220;4.412;2022-08-07T03:10:33;3.73;;;3.33;;
5937;SDS011;2994;51.220;4.412;2022-08-07T03:12:59;4.67;;;4.20;;
5937;SDS011;2994;51.220;4.412;2022-08-07T03:15:26;4.20;;;3.80;;
5937;SDS011;2994;51.220;4.412;2022-08-07T03:17:53;4.10;;;3.80;;
5937;SDS011;2994;51.220;4.412;2022-08-07T03:20:19;4.67;;;3.70;;
5937;SDS011;2994;51.220;4.412;2022-08-07T03:22:44;4.60;;;4.20;;
5937;SDS011;2994;51.220;4.412;2022-08-07T03:25:11;4.87;;;4.03;;
5937;SDS011;2994;51.220;4.412;2022-08-07T03:27:37;5.67;;;4.90;;
5937;SDS011;2994;51.220;4.412;2022-08-07T03:30:05;6.93;;;4.70;;
5937;SDS011;2994;51.220;4.412;2022-08-07T03:32:36;4.50;;;3.70;;
5937;SDS011;2994;51.220;4.412;2022-08-07T03:35:04;5.73;;;4.17;;
5937;SDS011;2994;51.220;4.412;2022-08-07T03:37:34;5.30;;;4.30;;
5937;SDS011;2994;51.220;4.412;2022-08-07T03:40:01;4.40;;;4.00;;
5937;SDS011;2994;51.220;4.412;2022-08-07T03:42:27;4.60;;;4.20;;
5937;SDS011;2994;51.220;4.412;2022-08-07T03:44:54;5.60;;;4.63;;
5937;SDS011;2994;51.220;4.412;2022-08-07T03:47:20;6.03;;;4.63;;
5937;SDS011;2994;51.220;4.412;2022-08-07T03:49:46;7.03;;;4.73;;
5937;SDS011;2994;51.220;4.412;2022-08-07T03:52:12;5.80;;;4.77;;
5937;SDS011;2994;51.220;4.412;2022-08-07T03:54:39;5.10;;;4.60;;
5937;SDS011;2994;51.220;4.412;2022-08-07T03:57:04;5.57;;;4.40;;
5937;SDS011;2994;51.220;4.412;2022-08-07T03:59:31;5.40;;;4.90;;
5937;SDS011;2994;51.220;4.412;2022-08-07T04:01:57;4.50;;;4.20;;
5937;SDS011;2994;51.220;4.412;2022-08-07T04:04:23;5.10;;;4.60;;
5937;SDS011;2994;51.220;4.412;2022-08-07T04:06:50;5.07;;;4.67;;
5937;SDS011;2994;51.220;4.412;2022-08-07T04:09:16;5.47;;;5.00;;
5937;SDS011;2994;51.220;4.412;2022-08-07T04:11:44;5.40;;;4.87;;
5937;SDS011;2994;51.220;4.412;2022-08-07T04:14:10;5.60;;;5.10;;
5937;SDS011;2994;51.220;4.412;2022-08-07T04:16:37;6.67;;;5.40;;
5937;SDS011;2994;51.220;4.412;2022-08-07T04:19:03;5.30;;;4.80;;
5937;SDS011;2994;51.220;4.412;2022-08-07T04:21:29;5.80;;;5.27;;
5937;SDS011;2994;51.220;4.412;2022-08-07T04:23:56;6.17;;;5.67;;
5937;SDS011;2994;51.220;4.412;2022-08-07T04:26:21;6.80;;;6.20;;
5937;SDS011;2994;51.220;4.412;2022-08-07T04:28:47;6.30;;;4.23;;
5937;SDS011;2994;51.220;4.412;2022-08-07T04:31:13;4.60;;;4.20;;
5937;SDS011;2994;51.220;4.412;2022-08-07T04:33:39;4.67;;;4.27;;
5937;SDS011;2994;51.220;4.412;2022-08-07T04:36:06;5.60;;;4.20;;
5937;SDS011;2994;51.220;4.412;2022-08-07T04:38:35;5.10;;;4.60;;
5937;SDS011;2994;51.220;4.412;2022-08-07T04:41:00;4.80;;;4.40;;
5937;SDS011;2994;51.220;4.412;2022-08-07T04:43:27;4.73;;;4.27;;
5937;SDS011;2994;51.220;4.412;2022-08-07T04:54:07;4.40;;;4.00;;
5937;SDS011;2994;51.220;4.412;2022-08-07T04:56:45;4.73;;;3.90;;
5937;SDS011;2994;51.220;4.412;2022-08-07T05:02:19;5.13;;;4.63;;
5937;SDS011;2994;51.220;4.412;2022-08-07T05:04:55;4.60;;;4.20;;
5937;SDS011;2994;51.220;4.412;2022-08-07T05:10:05;4.60;;;3.80;;
5937;SDS011;2994;51.220;4.412;2022-08-07T05:12:43;4.87;;;4.30;;
5937;SDS011;2994;51.220;4.412;2022-08-07T05:15:15;4.90;;;4.03;;
5937;SDS011;2994;51.220;4.412;2022-08-07T05:17:46;7.03;;;4.23;;
5937;SDS011;2994;51.220;4.412;2022-08-07T05:20:16;6.23;;;4.20;;
5937;SDS011;2994;51.220;4.412;2022-08-07T05:22:48;4.90;;;4.50;;
5937;SDS011;2994;51.220;4.412;2022-08-07T05:25:16;4.63;;;4.23;;
5937;SDS011;2994;51.220;4.412;2022-08-07T05:27:43;4.77;;;4.30;;
5937;SDS011;2994;51.220;4.412;2022-08-07T05:30:11;5.70;;;4.40;;
5937;SDS011;2994;51.220;4.412;2022-08-07T05:32:37;5.83;;;4.50;;
5937;SDS011;2994;51.220;4.412;2022-08-07T05:35:05;7.50;;;5.10;;
5937;SDS011;2994;51.220;4.412;2022-08-07T05:37:32;6.00;;;5.03;;
5937;SDS011;2994;51.220;4.412;2022-08-07T05:39:59;6.00;;;5.40;;
5937;SDS011;2994;51.220;4.412;2022-08-07T05:42:25;6.90;;;6.17;;
5937;SDS011;2994;51.220;4.412;2022-08-07T05:44:51;7.77;;;5.23;;
5937;SDS011;2994;51.220;4.412;2022-08-07T05:47:18;6.67;;;5.93;;
5937;SDS011;2994;51.220;4.412;2022-08-07T05:49:48;6.40;;;5.30;;
5937;SDS011;2994;51.220;4.412;2022-08-07T05:52:16;5.90;;;5.10;;
5937;SDS011;2994;51.220;4.412;2022-08-07T05:54:42;6.37;;;5.60;;
5937;SDS011;2994;51.220;4.412;2022-08-07T05:57:08;5.33;;;4.90;;
5937;SDS011;2994;51.220;4.412;2022-08-07T05:59:35;6.83;;;5.20;;
5937;SDS011;2994;51.220;4.412;2022-08-07T06:02:03;6.20;;;5.60;;
5937;SDS011;2994;51.220;4.412;2022-08-07T06:04:30;5.67;;;5.17;;
5937;SDS011;2994;51.220;4.412;2022-08-07T06:07:02;8.80;;;5.80;;
5937;SDS011;2994;51.220;4.412;2022-08-07T06:09:30;6.97;;;4.90;;
5937;SDS011;2994;51.220;4.412;2022-08-07T06:11:56;7.10;;;5.43;;
5937;SDS011;2994;51.220;4.412;2022-08-07T06:14:22;6.03;;;5.43;;
5937;SDS011;2994;51.220;4.412;2022-08-07T06:16:48;5.93;;;4.37;;
5937;SDS011;2994;51.220;4.412;2022-08-07T06:19:15;5.60;;;5.00;;
5937;SDS011;2994;51.220;4.412;2022-08-07T06:21:42;5.93;;;4.93;;
5937;SDS011;2994;51.220;4.412;2022-08-07T06:24:09;4.83;;;4.10;;
5937;SDS011;2994;51.220;4.412;2022-08-07T06:26:37;9.47;;;4.80;;
5937;SDS011;2994;51.220;4.412;2022-08-07T06:29:05;5.50;;;4.50;;
5937;SDS011;2994;51.220;4.412;2022-08-07T06:31:31;5.80;;;4.90;;
5937;SDS011;2994;51.220;4.412;2022-08-07T06:33:57;4.77;;;4.37;;
5937;SDS011;2994;51.220;4.412;2022-08-07T06:36:22;5.40;;;4.87;;
5937;SDS011;2994;51.220;4.412;2022-08-07T06:38:50;5.33;;;4.80;;
5937;SDS011;2994;51.220;4.412;2022-08-07T06:41:21;5.50;;;4.20;;
5937;SDS011;2994;51.220;4.412;2022-08-07T06:43:50;5.20;;;4.00;;
5937;SDS011;2994;51.220;4.412;2022-08-07T06:46:17;4.33;;;3.63;;
5937;SDS011;2994;51.220;4.412;2022-08-07T06:48:43;3.90;;;3.57;;
5937;SDS011;2994;51.220;4.412;2022-08-07T06:51:09;4.93;;;4.40;;
5937;SDS011;2994;51.220;4.412;2022-08-07T06:53:38;4.20;;;3.57;;
5937;SDS011;2994;51.220;4.412;2022-08-07T06:56:05;4.37;;;3.97;;
5937;SDS011;2994;51.220;4.412;2022-08-07T06:58:33;5.37;;;3.97;;
5937;SDS011;2994;51.220;4.412;2022-08-07T07:00:59;3.47;;;3.17;;
5937;SDS011;2994;51.220;4.412;2022-08-07T07:03:30;4.70;;;3.43;;
5937;SDS011;2994;51.220;4.412;2022-08-07T07:05:56;3.67;;;3.37;;
5937;SDS011;2994;51.220;4.412;2022-08-07T07:08:26;3.50;;;3.07;;
5937;SDS011;2994;51.220;4.412;2022-08-07T07:10:52;3.10;;;2.80;;
5937;SDS011;2994;51.220;4.412;2022-08-07T07:13:20;3.60;;;2.77;;
5937;SDS011;2994;51.220;4.412;2022-08-07T07:15:54;2.67;;;2.40;;
5937;SDS011;2994;51.220;4.412;2022-08-07T07:18:28;4.40;;;2.23;;
5937;SDS011;2994;51.220;4.412;2022-08-07T07:20:56;2.63;;;2.20;;
5937;SDS011;2994;51.220;4.412;2022-08-07T07:23:25;3.20;;;2.50;;
5937;SDS011;2994;51.220;4.412;2022-08-07T07:25:54;2.90;;;2.50;;
5937;SDS011;2994;51.220;4.412;2022-08-07T07:28:32;2.43;;;2.23;;
5937;SDS011;2994;51.220;4.412;2022-08-07T07:31:03;3.07;;;2.70;;
5937;SDS011;2994;51.220;4.412;2022-08-07T07:33:32;4.10;;;2.53;;
5937;SDS011;2994;51.220;4.412;2022-08-07T07:35:59;2.53;;;2.33;;
5937;SDS011;2994;51.220;4.412;2022-08-07T07:38:27;3.40;;;2.83;;
5937;SDS011;2994;51.220;4.412;2022-08-07T07:40:55;2.63;;;2.43;;
5937;SDS011;2994;51.220;4.412;2022-08-07T07:43:23;4.40;;;3.10;;
5937;SDS011;2994;51.220;4.412;2022-08-07T07:45:51;3.67;;;2.70;;
5937;SDS011;2994;51.220;4.412;2022-08-07T07:48:21;2.43;;;2.13;;
5937;SDS011;2994;51.220;4.412;2022-08-07T07:50:49;3.70;;;2.60;;
5937;SDS011;2994;51.220;4.412;2022-08-07T07:53:16;2.83;;;2.40;;
5937;SDS011;2994;51.220;4.412;2022-08-07T07:55:44;5.17;;;2.90;;
5937;SDS011;2994;51.220;4.412;2022-08-07T07:58:10;2.97;;;2.60;;
5937;SDS011;2994;51.220;4.412;2022-08-07T08:00:36;3.10;;;2.60;;
5937;SDS011;2994;51.220;4.412;2022-08-07T08:03:04;2.97;;;2.43;;
5937;SDS011;2994;51.220;4.412;2022-08-07T08:05:36;5.60;;;3.00;;
5937;SDS011;2994;51.220;4.412;2022-08-07T08:08:02;3.67;;;2.80;;
5937;SDS011;2994;51.220;4.412;2022-08-07T08:10:29;3.80;;;2.37;;
5937;SDS011;2994;51.220;4.412;2022-08-07T08:12:55;3.20;;;2.60;;
5937;SDS011;2994;51.220;4.412;2022-08-07T08:15:23;4.23;;;3.07;;
5937;SDS011;2994;51.220;4.412;2022-08-07T08:17:49;4.50;;;2.67;;
5937;SDS011;2994;51.220;4.412;2022-08-07T08:20:15;2.63;;;2.30;;
5937;SDS011;2994;51.220;4.412;2022-08-07T08:22:42;3.83;;;2.57;;
5937;SDS011;2994;51.220;4.412;2022-08-07T08:25:30;2.60;;;2.23;;
5937;SDS011;2994;51.220;4.412;2022-08-07T08:28:26;3.70;;;2.33;;
5937;SDS011;2994;51.220;4.412;2022-08-07T08:30:55;3.07;;;2.77;;
5937;SDS011;2994;51.220;4.412;2022-08-07T08:33:23;2.30;;;2.10;;
5937;SDS011;2994;51.220;4.412;2022-08-07T08:35:51;2.77;;;2.43;;
5937;SDS011;2994;51.220;4.412;2022-08-07T08:38:21;4.27;;;2.60;;
5937;SDS011;2994;51.220;4.412;2022-08-07T08:40:57;3.13;;;2.83;;
5937;SDS011;2994;51.220;4.412;2022-08-07T08:45:57;7.47;;;2.80;;
5937;SDS011;2994;51.220;4.412;2022-08-07T08:51:18;3.60;;;2.80;;
5937;SDS011;2994;51.220;4.412;2022-08-07T08:56:47;2.50;;;2.13;;
5937;SDS011;2994;51.220;4.412;2022-08-07T08:59:32;2.50;;;2.30;;
5937;SDS011;2994;51.220;4.412;2022-08-07T09:02:15;3.37;;;2.77;;
5937;SDS011;2994;51.220;4.412;2022-08-07T09:04:57;2.53;;;1.97;;
5937;SDS011;2994;51.220;4.412;2022-08-07T09:07:41;3.00;;;2.70;;
5937;SDS011;2994;51.220;4.412;2022-08-07T09:10:16;2.67;;;2.47;;
5937;SDS011;2994;51.220;4.412;2022-08-07T09:12:59;3.53;;;2.53;;
5937;SDS011;2994;51.220;4.412;2022-08-07T09:15:37;2.57;;;2.10;;
5937;SDS011;2994;51.220;4.412;2022-08-07T09:18:15;2.47;;;2.27;;
5937;SDS011;2994;51.220;4.412;2022-08-07T09:26:45;2.90;;;2.20;;
5937;SDS011;2994;51.220;4.412;2022-08-07T09:50:55;2.70;;;2.00;;
5937;SDS011;2994;51.220;4.412;2022-08-07T09:53:30;2.83;;;2.20;;
5937;SDS011;2994;51.220;4.412;2022-08-07T09:58:56;2.67;;;2.47;;
5937;SDS011;2994;51.220;4.412;2022-08-07T10:18:23;3.30;;;2.20;;
5937;SDS011;2994;51.220;4.412;2022-08-07T10:21:58;2.67;;;2.40;;
5937;SDS011;2994;51.220;4.412;2022-08-07T10:27:08;3.30;;;2.10;;
5937;SDS011;2994;51.220;4.412;2022-08-07T10:35:46;3.23;;;2.27;;
5937;SDS011;2994;51.220;4.412;2022-08-07T10:38:34;4.03;;;2.27;;
5937;SDS011;2994;51.220;4.412;2022-08-07T10:41:14;3.73;;;2.07;;
5937;SDS011;2994;51.220;4.412;2022-08-07T10:43:58;2.10;;;1.90;;
5937;SDS011;2994;51.220;4.412;2022-08-07T10:46:34;2.90;;;2.17;;
5937;SDS011;2994;51.220;4.412;2022-08-07T10:49:25;2.00;;;1.77;;
5937;SDS011;2994;51.220;4.412;2022-08-07T10:52:17;1.80;;;1.60;;
5937;SDS011;2994;51.220;4.412;2022-08-07T10:54:52;2.50;;;1.70;;
5937;SDS011;2994;51.220;4.412;2022-08-07T10:57:25;2.50;;;1.90;;
5937;SDS011;2994;51.220;4.412;2022-08-07T11:11:07;3.00;;;2.17;;
5937;SDS011;2994;51.220;4.412;2022-08-07T11:13:50;3.67;;;2.87;;
5937;SDS011;2994;51.220;4.412;2022-08-07T11:16:21;3.60;;;2.43;;
5937;SDS011;2994;51.220;4.412;2022-08-07T11:21:33;3.73;;;3.20;;
5937;SDS011;2994;51.220;4.412;2022-08-07T11:24:19;3.33;;;2.60;;
5937;SDS011;2994;51.220;4.412;2022-08-07T11:26:56;3.13;;;2.83;;
5937;SDS011;2994;51.220;4.412;2022-08-07T11:32:19;3.17;;;2.83;;
5937;SDS011;2994;51.220;4.412;2022-08-07T11:37:36;4.87;;;3.80;;
5937;SDS011;2994;51.220;4.412;2022-08-07T12:13:13;2.87;;;2.53;;
5937;SDS011;2994;51.220;4.412;2022-08-07T12:15:48;3.37;;;2.70;;
5937;SDS011;2994;51.220;4.412;2022-08-07T12:18:25;2.80;;;2.50;;
5937;SDS011;2994;51.220;4.412;2022-08-07T12:21:01;4.57;;;3.17;;
5937;SDS011;2994;51.220;4.412;2022-08-07T12:26:12;4.53;;;3.00;;
5937;SDS011;2994;51.220;4.412;2022-08-07T12:31:39;3.17;;;2.90;;
5937;SDS011;2994;51.220;4.412;2022-08-07T12:34:08;5.50;;;2.67;;
5937;SDS011;2994;51.220;4.412;2022-08-07T12:36:35;3.10;;;2.03;;
5937;SDS011;2994;51.220;4.412;2022-08-07T12:39:03;4.07;;;2.73;;
5937;SDS011;2994;51.220;4.412;2022-08-07T12:41:30;2.57;;;2.37;;
5937;SDS011;2994;51.220;4.412;2022-08-07T12:43:59;3.03;;;2.33;;
5937;SDS011;2994;51.220;4.412;2022-08-07T12:46:31;3.07;;;2.50;;
5937;SDS011;2994;51.220;4.412;2022-08-07T12:52:18;1.87;;;1.77;;
5937;SDS011;2994;51.220;4.412;2022-08-07T12:55:02;3.43;;;2.40;;
5937;SDS011;2994;51.220;4.412;2022-08-07T12:57:34;3.60;;;2.43;;
5937;SDS011;2994;51.220;4.412;2022-08-07T13:00:03;2.30;;;1.90;;
5937;SDS011;2994;51.220;4.412;2022-08-07T13:11:24;3.97;;;2.30;;
5937;SDS011;2994;51.220;4.412;2022-08-07T13:17:06;3.03;;;2.30;;
5937;SDS011;2994;51.220;4.412;2022-08-07T13:25:18;2.70;;;2.27;;
5937;SDS011;2994;51.220;4.412;2022-08-07T13:30:22;2.23;;;2.07;;
5937;SDS011;2994;51.220;4.412;2022-08-07T13:33:10;2.10;;;1.90;;
5937;SDS011;2994;51.220;4.412;2022-08-07T13:35:56;2.93;;;2.73;;
5937;SDS011;2994;51.220;4.412;2022-08-07T13:38:38;3.10;;;2.30;;
5937;SDS011;2994;51.220;4.412;2022-08-07T13:41:11;2.53;;;2.33;;
5937;SDS011;2994;51.220;4.412;2022-08-07T13:44:00;2.40;;;2.20;;
5937;SDS011;2994;51.220;4.412;2022-08-07T13:46:29;2.30;;;2.10;;
5937;SDS011;2994;51.220;4.412;2022-08-07T13:48:56;3.20;;;2.40;;
5937;SDS011;2994;51.220;4.412;2022-08-07T13:51:26;2.83;;;2.30;;
5937;SDS011;2994;51.220;4.412;2022-08-07T13:53:55;2.23;;;2.03;;
5937;SDS011;2994;51.220;4.412;2022-08-07T13:56:23;2.40;;;2.20;;
5937;SDS011;2994;51.220;4.412;2022-08-07T13:58:50;3.13;;;1.90;;
5937;SDS011;2994;51.220;4.412;2022-08-07T14:01:28;2.40;;;2.20;;
5937;SDS011;2994;51.220;4.412;2022-08-07T14:04:05;2.27;;;2.07;;
5937;SDS011;2994;51.220;4.412;2022-08-07T14:06:45;2.00;;;1.90;;
5937;SDS011;2994;51.220;4.412;2022-08-07T14:09:17;3.23;;;2.70;;
5937;SDS011;2994;51.220;4.412;2022-08-07T14:11:48;2.00;;;1.80;;
5937;SDS011;2994;51.220;4.412;2022-08-07T14:14:17;1.53;;;1.43;;
5937;SDS011;2994;51.220;4.412;2022-08-07T14:16:48;2.33;;;1.90;;
5937;SDS011;2994;51.220;4.412;2022-08-07T14:19:19;2.90;;;1.93;;
5937;SDS011;2994;51.220;4.412;2022-08-07T14:21:53;2.03;;;1.70;;
5937;SDS011;2994;51.220;4.412;2022-08-07T14:24:32;1.77;;;1.67;;
5937;SDS011;2994;51.220;4.412;2022-08-07T14:27:04;1.80;;;1.70;;
5937;SDS011;2994;51.220;4.412;2022-08-07T14:29:36;2.63;;;1.50;;
5937;SDS011;2994;51.220;4.412;2022-08-07T14:32:07;2.47;;;1.93;;
5937;SDS011;2994;51.220;4.412;2022-08-07T14:34:36;1.80;;;1.70;;
5937;SDS011;2994;51.220;4.412;2022-08-07T14:37:07;2.87;;;1.70;;
5937;SDS011;2994;51.220;4.412;2022-08-07T14:39:35;2.30;;;2.00;;
5937;SDS011;2994;51.220;4.412;2022-08-07T14:42:02;1.80;;;1.70;;
5937;SDS011;2994;51.220;4.412;2022-08-07T14:44:30;2.33;;;1.67;;
5937;SDS011;2994;51.220;4.412;2022-08-07T14:46:56;3.80;;;2.10;;
5937;SDS011;2994;51.220;4.412;2022-08-07T14:49:28;2.93;;;2.33;;
5937;SDS011;2994;51.220;4.412;2022-08-07T14:51:57;3.33;;;2.43;;
5937;SDS011;2994;51.220;4.412;2022-08-07T14:54:28;3.80;;;2.20;;
5937;SDS011;2994;51.220;4.412;2022-08-07T14:56:55;3.00;;;2.30;;
5937;SDS011;2994;51.220;4.412;2022-08-07T14:59:22;4.47;;;2.67;;
5937;SDS011;2994;51.220;4.412;2022-08-07T15:01:51;2.80;;;2.60;;
5937;SDS011;2994;51.220;4.412;2022-08-07T15:04:18;3.13;;;2.70;;
5937;SDS011;2994;51.220;4.412;2022-08-07T15:06:46;2.73;;;2.27;;
5937;SDS011;2994;51.220;4.412;2022-08-07T15:09:14;2.93;;;2.03;;
5937;SDS011;2994;51.220;4.412;2022-08-07T15:11:46;2.60;;;2.40;;
5937;SDS011;2994;51.220;4.412;2022-08-07T15:14:19;2.20;;;2.10;;
5937;SDS011;2994;51.220;4.412;2022-08-07T15:16:48;2.23;;;2.07;;
5937;SDS011;2994;51.220;4.412;2022-08-07T15:19:21;2.67;;;2.47;;
5937;SDS011;2994;51.220;4.412;2022-08-07T15:21:52;3.13;;;2.83;;
5937;SDS011;2994;51.220;4.412;2022-08-07T15:24:55;2.50;;;2.30;;
5937;SDS011;2994;51.220;4.412;2022-08-07T15:27:21;2.80;;;2.47;;
5937;SDS011;2994;51.220;4.412;2022-08-07T15:29:50;3.00;;;2.60;;
5937;SDS011;2994;51.220;4.412;2022-08-07T15:32:20;3.53;;;2.30;;
5937;SDS011;2994;51.220;4.412;2022-08-07T15:34:48;2.50;;;2.30;;
5937;SDS011;2994;51.220;4.412;2022-08-07T15:37:16;3.57;;;3.27;;
5937;SDS011;2994;51.220;4.412;2022-08-07T15:39:46;3.80;;;2.33;;
5937;SDS011;2994;51.220;4.412;2022-08-07T15:45:04;2.80;;;2.60;;
5937;SDS011;2994;51.220;4.412;2022-08-07T15:47:33;3.10;;;2.73;;
5937;SDS011;2994;51.220;4.412;2022-08-07T15:50:03;3.27;;;3.07;;
5937;SDS011;2994;51.220;4.412;2022-08-07T15:52:30;3.67;;;3.37;;
5937;SDS011;2994;51.220;4.412;2022-08-07T15:55:01;4.00;;;3.60;;
5937;SDS011;2994;51.220;4.412;2022-08-07T15:57:29;3.53;;;3.23;;
5937;SDS011;2994;51.220;4.412;2022-08-07T15:59:56;3.33;;;3.13;;
5937;SDS011;2994;51.220;4.412;2022-08-07T16:02:26;3.13;;;2.93;;
5937;SDS011;2994;51.220;4.412;2022-08-07T16:04:54;3.17;;;2.97;;
5937;SDS011;2994;51.220;4.412;2022-08-07T16:07:24;3.50;;;3.30;;
5937;SDS011;2994;51.220;4.412;2022-08-07T16:10:15;3.67;;;3.37;;
5937;SDS011;2994;51.220;4.412;2022-08-07T16:23:43;2.90;;;2.70;;
5937;SDS011;2994;51.220;4.412;2022-08-07T16:32:00;3.70;;;3.40;;
5937;SDS011;2994;51.220;4.412;2022-08-07T16:39:56;5.23;;;3.17;;
5937;SDS011;2994;51.220;4.412;2022-08-07T16:50:36;2.77;;;2.57;;
5937;SDS011;2994;51.220;4.412;2022-08-07T17:06:55;3.53;;;3.23;;
5937;SDS011;2994;51.220;4.412;2022-08-07T17:12:13;2.93;;;2.40;;
5937;SDS011;2994;51.220;4.412;2022-08-07T17:14:47;4.37;;;2.50;;
5937;SDS011;2994;51.220;4.412;2022-08-07T17:20:29;4.10;;;2.97;;
5937;SDS011;2994;51.220;4.412;2022-08-07T17:29:20;3.13;;;2.83;;
5937;SDS011;2994;51.220;4.412;2022-08-07T17:31:41;3.10;;;2.80;;
5937;SDS011;2994;51.220;4.412;2022-08-07T17:34:27;4.13;;;3.00;;
5937;SDS011;2994;51.220;4.412;2022-08-07T17:37:00;3.53;;;2.70;;
5937;SDS011;2994;51.220;4.412;2022-08-07T17:39:42;3.70;;;2.47;;
5937;SDS011;2994;51.220;4.412;2022-08-07T17:44:59;2.93;;;2.70;;
5937;SDS011;2994;51.220;4.412;2022-08-07T17:47:33;3.57;;;2.83;;
5937;SDS011;2994;51.220;4.412;2022-08-07T17:53:29;4.80;;;2.90;;
5937;SDS011;2994;51.220;4.412;2022-08-07T17:56:07;3.80;;;2.80;;
5937;SDS011;2994;51.220;4.412;2022-08-07T17:58:39;4.97;;;3.20;;
5937;SDS011;2994;51.220;4.412;2022-08-07T18:01:18;4.83;;;2.97;;
5937;SDS011;2994;51.220;4.412;2022-08-07T18:03:59;3.30;;;3.00;;
5937;SDS011;2994;51.220;4.412;2022-08-07T18:06:38;3.20;;;2.90;;
5937;SDS011;2994;51.220;4.412;2022-08-07T18:09:14;3.33;;;3.03;;
5937;SDS011;2994;51.220;4.412;2022-08-07T18:11:47;4.87;;;3.60;;
5937;SDS011;2994;51.220;4.412;2022-08-07T18:14:21;3.23;;;2.97;;
5937;SDS011;2994;51.220;4.412;2022-08-07T18:16:58;3.40;;;2.80;;
5937;SDS011;2994;51.220;4.412;2022-08-07T18:19:51;2.60;;;2.40;;
5937;SDS011;2994;51.220;4.412;2022-08-07T18:24:56;3.63;;;3.33;;
5937;SDS011;2994;51.220;4.412;2022-08-07T18:30:43;3.10;;;2.90;;
5937;SDS011;2994;51.220;4.412;2022-08-07T18:41:56;4.27;;;2.60;;
5937;SDS011;2994;51.220;4.412;2022-08-07T18:58:49;3.70;;;3.27;;
5937;SDS011;2994;51.220;4.412;2022-08-07T19:12:17;3.60;;;3.30;;
5937;SDS011;2994;51.220;4.412;2022-08-07T19:20:37;3.53;;;3.23;;
5937;SDS011;2994;51.220;4.412;2022-08-07T19:23:27;3.63;;;3.33;;
5937;SDS011;2994;51.220;4.412;2022-08-07T19:26:14;4.23;;;3.60;;
5937;SDS011;2994;51.220;4.412;2022-08-07T19:28:41;4.10;;;3.80;;
5937;SDS011;2994;51.220;4.412;2022-08-07T19:31:18;3.83;;;3.20;;
5937;SDS011;2994;51.220;4.412;2022-08-07T19:33:48;9.30;;;3.87;;
5937;SDS011;2994;51.220;4.412;2022-08-07T19:36:15;3.90;;;3.57;;
5937;SDS011;2994;51.220;4.412;2022-08-07T19:38:43;4.33;;;3.20;;
5937;SDS011;2994;51.220;4.412;2022-08-07T19:41:13;4.03;;;3.63;;
5937;SDS011;2994;51.220;4.412;2022-08-07T19:43:45;4.40;;;3.87;;
5937;SDS011;2994;51.220;4.412;2022-08-07T19:46:13;4.00;;;3.50;;
5937;SDS011;2994;51.220;4.412;2022-08-07T19:48:41;3.83;;;3.53;;
5937;SDS011;2994;51.220;4.412;2022-08-07T19:51:11;4.53;;;4.13;;
5937;SDS011;2994;51.220;4.412;2022-08-07T19:53:47;4.43;;;4.03;;
5937;SDS011;2994;51.220;4.412;2022-08-07T19:56:18;4.10;;;3.80;;
5937;SDS011;2994;51.220;4.412;2022-08-07T19:58:45;4.20;;;3.80;;
5937;SDS011;2994;51.220;4.412;2022-08-07T20:01:14;5.60;;;3.90;;
5937;SDS011;2994;51.220;4.412;2022-08-07T20:03:41;4.43;;;3.50;;
5937;SDS011;2994;51.220;4.412;2022-08-07T20:06:09;4.70;;;4.17;;